createdAt,value
2019-04-06T00:01:12.663Z,99098.34
2019-04-06T00:03:42.107Z,99103.20
2019-04-06T00:06:11.632Z,99101.68
2019-04-06T00:08:41.434Z,99099.17
2019-04-06T00:11:11.889Z,99099.17
2019-04-06T00:13:41.919Z,99101.50
2019-04-06T00:16:11.703Z,99097.81
2019-04-06T00:18:41.516Z,99096.29
2019-04-06T00:21:11.168Z,99101.16
2019-04-06T00:23:40.618Z,99109.02
2019-04-06T00:26:10.076Z,99104.84
2019-04-06T00:28:39.807Z,99107.88
2019-04-06T00:31:22.822Z,99106.84
2019-04-06T00:33:52.259Z,99109.22
2019-04-06T00:36:21.720Z,99107.86
2019-04-06T00:38:51.221Z,99107.86
2019-04-06T00:41:20.638Z,99106.83
2019-04-06T00:43:50.176Z,99107.48
2019-04-06T00:46:19.881Z,99105.27
2019-04-06T00:48:50.421Z,99104.39
2019-04-06T00:51:20.238Z,99104.05
2019-04-06T00:53:50.040Z,99110.76
2019-04-06T00:56:19.493Z,99102.72
2019-04-06T00:58:49.193Z,99105.39
2019-04-06T01:01:19.801Z,99104.38
2019-04-06T01:03:49.310Z,99108.38
2019-04-06T01:06:18.848Z,99106.01
2019-04-06T01:08:48.359Z,99109.79
2019-04-06T01:11:18.110Z,99113.79
2019-04-06T01:13:47.635Z,99119.59
2019-04-06T01:16:17.433Z,99115.70
2019-04-06T01:18:46.982Z,99113.34
2019-04-06T01:21:16.437Z,99120.88
2019-04-06T01:23:46.856Z,99114.83
2019-04-06T01:26:16.328Z,99122.89
2019-04-06T01:28:45.761Z,99117.20
2019-04-06T01:31:15.229Z,99119.19
2019-04-06T01:33:44.690Z,99119.19
2019-04-06T01:36:14.213Z,99118.82
2019-04-06T01:38:43.656Z,99120.44
2019-04-06T01:41:13.445Z,99121.93
2019-04-06T01:43:43.168Z,99126.78
2019-04-06T01:46:12.622Z,99129.08
2019-04-06T01:48:42.074Z,99121.02
2019-04-06T01:51:11.529Z,99121.33
2019-04-06T01:53:41.212Z,99120.30
2019-04-06T01:56:18.410Z,99121.14
2019-04-06T01:58:41.892Z,99111.43
2019-04-06T02:01:15.656Z,99111.27
2019-04-06T02:03:45.102Z,99119.95
2019-04-06T02:06:14.561Z,99118.92
2019-04-06T02:08:44.006Z,99116.20
2019-04-06T02:11:13.819Z,99116.40
2019-04-06T02:13:43.748Z,99110.17
2019-04-06T02:16:13.297Z,99113.53
2019-04-06T02:18:42.723Z,99107.88
2019-04-06T02:21:12.247Z,99113.22
2019-04-06T02:23:41.689Z,99119.77
2019-04-06T02:26:11.131Z,99110.20
2019-04-06T02:28:40.855Z,99113.27
2019-04-06T02:31:11.935Z,99120.02
2019-04-06T02:33:51.644Z,99121.24
2019-04-06T02:36:53.381Z,99116.27
2019-04-06T02:39:39.724Z,99119.00
2019-04-06T02:42:10.878Z,99117.04
2019-04-06T02:44:40.503Z,99117.25
2019-04-06T02:47:09.969Z,99116.78
2019-04-06T02:49:39.427Z,99117.15
2019-04-06T02:52:08.898Z,99116.16
2019-04-06T02:54:38.328Z,99126.17
2019-04-06T02:57:07.838Z,99127.23
2019-04-06T02:59:37.268Z,99130.13
2019-04-06T03:02:06.720Z,99129.41
2019-04-06T03:04:36.224Z,99123.21
2019-04-06T03:07:06.643Z,99126.05
2019-04-06T03:09:36.104Z,99127.70
2019-04-06T03:12:05.575Z,99122.01
2019-04-06T03:14:35.123Z,99125.31
2019-04-06T03:17:07.132Z,99116.91
2019-04-06T03:19:36.610Z,99116.70
2019-04-06T03:22:06.170Z,99125.36
2019-04-06T03:24:35.909Z,99122.30
2019-04-06T03:27:05.458Z,99121.59
2019-04-06T03:29:34.884Z,99120.64
2019-04-06T03:32:04.347Z,99124.97
2019-04-06T03:34:33.877Z,99124.12
2019-04-06T03:37:03.663Z,99126.88
2019-04-06T03:39:33.159Z,99140.75
2019-04-06T03:42:02.812Z,99139.52
2019-04-06T03:44:32.581Z,99138.88
2019-04-06T03:47:02.049Z,99133.63
2019-04-06T03:49:31.533Z,99132.68
2019-04-06T03:52:00.997Z,99126.64
2019-04-06T03:54:30.434Z,99129.02
2019-04-06T03:57:13.144Z,99120.53
2019-04-06T03:59:31.082Z,99128.09
2019-04-06T04:02:00.537Z,99133.26
2019-04-06T04:04:29.980Z,99130.58
2019-04-06T04:06:59.704Z,99135.24
2019-04-06T04:09:29.158Z,99137.61
2019-04-06T04:11:59.118Z,99140.48
2019-04-06T04:14:28.561Z,99141.82
2019-04-06T04:16:57.958Z,99137.16
2019-04-06T04:19:27.409Z,99142.89
2019-04-06T04:21:57.128Z,99140.37
2019-04-06T04:24:26.772Z,99138.84
2019-04-06T04:26:56.384Z,99137.50
2019-04-06T04:29:25.845Z,99141.02
2019-04-06T04:31:55.537Z,99141.83
2019-04-06T04:34:24.995Z,99138.30
2019-04-06T04:36:54.512Z,99138.61
2019-04-06T04:39:23.960Z,99138.53
2019-04-06T04:41:53.398Z,99146.84
2019-04-06T04:44:22.858Z,99147.80
2019-04-06T04:46:52.840Z,99146.08
2019-04-06T04:49:22.539Z,99147.22
2019-04-06T04:51:52.279Z,99153.36
2019-04-06T04:54:21.728Z,99150.49
2019-04-06T04:56:51.635Z,99146.33
2019-04-06T04:59:21.223Z,99150.04
2019-04-06T05:01:50.665Z,99144.23
2019-04-06T05:04:20.123Z,99153.25
2019-04-06T05:06:49.644Z,99151.81
2019-04-06T05:09:19.108Z,99150.02
2019-04-06T05:11:49.181Z,99157.56
2019-04-06T05:14:53.995Z,99161.66
2019-04-06T05:17:23.438Z,99162.30
2019-04-06T05:19:52.907Z,99160.70
2019-04-06T05:22:22.550Z,99157.38
2019-04-06T05:24:52.147Z,99160.94
2019-04-06T05:27:21.732Z,99162.13
2019-04-06T05:29:51.183Z,99170.84
2019-04-06T05:32:20.942Z,99167.02
2019-04-06T05:34:50.420Z,99165.60
2019-04-06T05:37:20.405Z,99171.94
2019-04-06T05:39:49.963Z,99172.05
2019-04-06T05:42:19.398Z,99173.27
2019-04-06T05:44:48.854Z,99166.98
2019-04-06T05:47:18.319Z,99167.28
2019-04-06T05:49:48.175Z,99160.55
2019-04-06T05:52:17.633Z,99173.00
2019-04-06T05:54:47.116Z,99175.70
2019-04-06T05:57:16.643Z,99176.43
2019-04-06T05:59:46.113Z,99170.50
2019-04-06T06:02:15.588Z,99173.41
2019-04-06T06:04:45.790Z,99162.60
2019-04-06T06:07:15.552Z,99163.06
2019-04-06T06:09:45.017Z,99163.06
2019-04-06T06:12:15.133Z,99164.38
2019-04-06T06:14:44.617Z,99168.93
2019-04-06T06:17:14.425Z,99173.48
2019-04-06T06:19:44.148Z,99180.78
2019-04-06T06:22:13.566Z,99184.73
2019-04-06T06:24:43.039Z,99186.30
2019-04-06T06:27:12.513Z,99191.36
2019-04-06T06:29:41.996Z,99190.88
2019-04-06T06:32:11.661Z,99184.23
2019-04-06T06:34:41.129Z,99180.06
2019-04-06T06:37:10.649Z,99188.81
2019-04-06T06:39:40.067Z,99179.23
2019-04-06T06:42:09.520Z,99170.56
2019-04-06T06:44:38.996Z,99169.78
2019-04-06T06:47:10.080Z,99176.28
2019-04-06T06:49:48.832Z,99166.63
2019-04-06T06:52:18.649Z,99170.22
2019-04-06T06:54:48.183Z,99170.84
2019-04-06T06:57:17.750Z,99163.06
2019-04-06T06:59:47.912Z,99167.45
2019-04-06T07:02:17.608Z,99168.49
2019-04-06T07:04:47.264Z,99160.39
2019-04-06T07:07:23.913Z,99164.84
2019-04-06T07:10:04.216Z,99162.02
2019-04-06T07:12:25.126Z,99157.75
2019-04-06T07:14:54.865Z,99155.73
2019-04-06T07:17:24.382Z,99156.41
2019-04-06T07:19:53.899Z,99151.12
2019-04-06T07:22:23.656Z,99147.43
2019-04-06T07:24:53.122Z,99149.27
2019-04-06T07:27:23.118Z,99147.69
2019-04-06T07:29:52.571Z,99145.66
2019-04-06T07:32:22.096Z,99150.55
2019-04-06T07:34:51.805Z,99151.84
2019-04-06T07:37:21.252Z,99140.48
2019-04-06T07:39:50.718Z,99140.31
2019-04-06T07:42:20.517Z,99141.17
2019-04-06T07:44:50.739Z,99133.47
2019-04-06T07:47:20.668Z,99134.72
2019-04-06T07:49:50.304Z,99136.80
2019-04-06T07:52:20.220Z,99135.81
2019-04-06T07:54:49.949Z,99134.51
2019-04-06T07:57:21.126Z,99134.78
2019-04-06T07:59:50.698Z,99135.20
2019-04-06T08:02:21.237Z,99125.45
2019-04-06T08:04:51.099Z,99123.27
2019-04-06T08:07:23.464Z,99119.77
2019-04-06T08:09:54.387Z,99117.91
2019-04-06T08:12:23.982Z,99115.25
2019-04-06T08:14:53.690Z,99116.37
2019-04-06T08:17:23.370Z,99109.17
2019-04-06T08:19:53.128Z,99110.44
2019-04-06T08:22:22.581Z,99110.70
2019-04-06T08:24:52.153Z,99104.31
2019-04-06T08:27:21.706Z,99099.01
2019-04-06T08:29:52.965Z,99109.73
2019-04-06T08:32:22.851Z,99106.71
2019-04-06T08:34:52.460Z,99097.53
2019-04-06T08:37:22.131Z,99085.03
2019-04-06T08:39:55.688Z,99091.63
2019-04-06T08:42:25.575Z,99082.14
2019-04-06T08:44:55.642Z,99073.88
2019-04-06T08:47:25.206Z,99068.67
2019-04-06T08:49:54.775Z,99073.48
2019-04-06T08:52:24.398Z,99068.25
2019-04-06T08:54:58.767Z,99065.75
2019-04-06T08:57:28.219Z,99072.78
2019-04-06T08:59:58.139Z,99072.61
2019-04-06T09:02:34.372Z,99078.52
2019-04-06T09:05:07.912Z,99071.39
2019-04-06T09:07:45.739Z,99074.17
2019-04-06T09:10:15.014Z,99067.61
2019-04-06T09:12:44.477Z,99063.44
2019-04-06T09:15:16.647Z,99063.27
2019-04-06T09:17:46.297Z,99048.23
2019-04-06T09:20:15.736Z,99051.78
2019-04-06T09:22:46.158Z,99053.67
2019-04-06T09:25:15.786Z,99052.08
2019-04-06T09:27:45.342Z,99049.00
2019-04-06T09:30:15.350Z,99046.41
2019-04-06T09:32:49.219Z,99040.08
2019-04-06T09:35:19.668Z,99030.24
2019-04-06T09:37:49.143Z,99031.98
2019-04-06T09:40:18.641Z,99026.89
2019-04-06T09:42:49.112Z,99029.45
2019-04-06T09:45:41.083Z,99035.38
2019-04-06T09:48:26.059Z,99020.46
2019-04-06T09:51:02.781Z,99024.33
2019-04-06T09:53:45.783Z,99015.61
2019-04-06T09:56:17.262Z,99024.07
2019-04-06T09:58:48.593Z,99009.05
2019-04-06T10:01:39.546Z,99006.38
2019-04-06T10:04:22.492Z,99005.38
2019-04-06T10:06:56.135Z,99009.25
2019-04-06T10:09:44.973Z,99012.13
2019-04-06T10:12:18.884Z,99011.38
2019-04-06T10:15:05.124Z,99007.59
2019-04-06T10:17:52.669Z,99002.70
2019-04-06T10:20:39.598Z,99004.56
2019-04-06T10:23:27.212Z,99005.79
2019-04-06T10:26:04.516Z,99005.69
2019-04-06T10:28:51.034Z,99006.41
2019-04-06T10:31:22.104Z,98993.89
2019-04-06T10:34:04.948Z,98995.31
2019-04-06T10:36:52.195Z,98989.97
2019-04-06T10:39:29.008Z,98996.06
2019-04-06T10:42:02.906Z,98990.80
2019-04-06T10:44:42.775Z,98996.63
2019-04-06T10:47:19.564Z,98986.68
2019-04-06T10:49:56.488Z,98983.28
2019-04-06T10:52:42.422Z,98986.57
2019-04-06T10:55:14.224Z,98979.26
2019-04-06T10:58:02.107Z,98988.44
2019-04-06T11:00:42.473Z,98984.61
2019-04-06T11:03:30.047Z,98978.45
2019-04-06T11:06:07.187Z,98963.31
2019-04-06T11:08:44.253Z,98976.93
2019-04-06T11:11:27.437Z,98973.34
2019-04-06T11:14:04.348Z,98974.81
2019-04-06T11:16:47.337Z,98976.53
2019-04-06T11:19:20.674Z,98964.64
2019-04-06T11:21:54.578Z,98964.26
2019-04-06T11:24:43.635Z,98963.52
2019-04-06T11:27:14.792Z,98957.28
2019-04-06T11:29:51.658Z,98960.64
2019-04-06T11:32:25.683Z,98958.88
2019-04-06T11:35:05.963Z,98961.26
2019-04-06T11:37:45.959Z,98962.36
2019-04-06T11:40:23.542Z,98949.64
2019-04-06T11:43:06.639Z,98952.14
2019-04-06T11:45:47.134Z,98954.10
2019-04-06T11:48:18.509Z,98944.23
2019-04-06T11:50:49.620Z,98940.27
2019-04-06T11:56:19.721Z,98934.11
2019-04-06T11:58:50.812Z,98924.86
2019-04-06T12:01:22.629Z,98919.08
2019-04-06T12:04:10.406Z,98917.66
2019-04-06T12:06:41.575Z,98921.48
2019-04-06T12:09:12.875Z,98924.30
2019-04-06T12:11:44.055Z,98918.19
2019-04-06T12:14:24.297Z,98917.06
2019-04-06T12:17:13.896Z,98926.39
2019-04-06T12:19:57.349Z,98922.55
2019-04-06T12:22:34.353Z,98918.66
2019-04-06T12:25:12.509Z,98915.81
2019-04-06T12:27:43.646Z,98906.52
2019-04-06T12:30:18.010Z,98917.11
2019-04-06T12:32:53.026Z,98905.02
2019-04-06T12:35:30.291Z,98905.16
2019-04-06T12:38:01.621Z,98903.16
2019-04-06T12:40:32.667Z,98898.59
2019-04-06T12:43:09.803Z,98896.17
2019-04-06T12:45:40.901Z,98904.39
2019-04-06T12:48:24.017Z,98899.22
2019-04-06T12:50:55.161Z,98894.50
2019-04-06T12:53:26.264Z,98900.58
2019-04-06T12:56:12.298Z,98898.27
2019-04-06T12:58:58.497Z,98898.91
2019-04-06T13:01:41.481Z,98905.06
2019-04-06T13:04:29.674Z,98899.83
2019-04-06T13:07:03.920Z,98902.39
2019-04-06T13:09:50.277Z,98904.44
2019-04-06T13:12:27.247Z,98874.40
2019-04-06T13:14:59.446Z,98897.83
2019-04-06T13:17:39.655Z,98899.23
2019-04-06T13:20:13.225Z,98899.44
2019-04-06T13:23:00.990Z,98890.41
2019-04-06T13:25:48.551Z,98890.66
2019-04-06T13:28:28.595Z,98887.38
2019-04-06T13:31:04.227Z,98879.58
2019-04-06T13:33:44.511Z,98888.94
2019-04-06T13:36:16.014Z,98886.66
2019-04-06T13:38:47.811Z,98874.23
2019-04-06T13:41:18.865Z,98880.67
2019-04-06T13:43:52.969Z,98876.59
2019-04-06T13:46:39.903Z,98884.17
2019-04-06T13:49:11.291Z,98886.13
2019-04-06T13:51:54.352Z,98884.84
2019-04-06T13:54:38.107Z,98882.50
2019-04-06T13:57:09.532Z,98863.09
2019-04-06T13:59:40.993Z,98878.59
2019-04-06T14:02:18.255Z,98880.52
2019-04-06T14:04:49.897Z,98879.24
2019-04-06T14:07:30.419Z,98873.67
2019-04-06T14:10:04.597Z,98880.77
2019-04-06T14:12:48.058Z,98872.78
2019-04-06T14:15:30.836Z,98880.14
2019-04-06T14:18:04.824Z,98877.31
2019-04-06T14:20:52.584Z,98877.50
2019-04-06T14:23:32.230Z,98875.23
2019-04-06T14:26:06.034Z,98871.89
2019-04-06T14:28:39.634Z,98882.77
2019-04-06T14:31:28.611Z,98885.73
2019-04-06T14:34:05.196Z,98891.75
2019-04-06T14:36:36.288Z,98899.86
2019-04-06T14:39:20.854Z,98903.35
2019-04-06T14:41:51.961Z,98912.55
2019-04-06T14:44:35.315Z,98900.25
2019-04-06T14:47:22.023Z,98914.83
2019-04-06T14:50:09.063Z,98911.39
2019-04-06T14:52:46.113Z,98906.30
2019-04-06T14:55:17.937Z,98915.00
2019-04-06T14:57:49.053Z,98896.72
2019-04-06T15:00:29.235Z,98899.81
2019-04-06T15:03:00.350Z,98899.23
2019-04-06T15:05:40.174Z,98896.73
2019-04-06T15:08:14.189Z,98904.50
2019-04-06T15:10:48.315Z,98910.14
2019-04-06T15:13:25.439Z,98905.23
2019-04-06T15:15:59.752Z,98913.97
2019-04-06T15:18:31.190Z,98905.34
2019-04-06T15:21:05.244Z,98911.35
2019-04-06T15:23:39.121Z,98913.59
2019-04-06T15:26:10.510Z,98908.40
2019-04-06T15:28:50.623Z,98906.20
2019-04-06T15:31:27.900Z,98905.91
2019-04-06T15:34:11.269Z,98906.71
2019-04-06T15:36:45.321Z,98907.09
2019-04-06T15:39:25.664Z,98917.86
2019-04-06T15:41:59.351Z,98918.17
2019-04-06T15:44:39.241Z,98921.55
2019-04-06T15:47:13.599Z,98916.08
2019-04-06T15:49:47.572Z,98920.77
2019-04-06T15:52:35.663Z,98924.30
2019-04-06T15:55:08.813Z,98919.97
2019-04-06T15:57:43.373Z,98917.28
2019-04-06T16:00:30.632Z,98920.69
2019-04-06T16:03:02.246Z,98920.55
2019-04-06T16:05:33.455Z,98920.52
2019-04-06T16:08:10.552Z,98926.16
2019-04-06T16:10:50.650Z,98935.38
2019-04-06T16:13:37.008Z,98940.22
2019-04-06T16:16:11.626Z,98950.92
2019-04-06T16:18:46.356Z,98939.91
2019-04-06T16:21:33.856Z,98953.73
2019-04-06T16:24:21.865Z,98970.83
2019-04-06T16:26:52.997Z,98968.88
2019-04-06T16:29:29.592Z,98966.77
2019-04-06T16:32:16.861Z,98969.11
2019-04-06T16:34:51.479Z,98970.53
2019-04-06T16:37:28.731Z,98980.11
2019-04-06T16:40:05.833Z,98987.07
2019-04-06T16:42:37.051Z,98992.61
2019-04-06T16:45:20.518Z,98997.31
2019-04-06T16:48:06.685Z,99006.66
2019-04-06T16:50:55.670Z,99006.37
2019-04-06T16:53:38.779Z,99019.03
2019-04-06T16:56:25.829Z,99027.41
2019-04-06T16:59:00.146Z,99025.48
2019-04-06T17:01:31.304Z,99023.88
2019-04-06T17:04:17.480Z,99032.44
2019-04-06T17:06:52.204Z,99034.69
2019-04-06T17:09:23.453Z,99036.88
2019-04-06T17:12:06.472Z,99046.00
2019-04-06T17:14:53.904Z,99044.27
2019-04-06T17:17:40.151Z,99040.27
2019-04-06T17:20:27.442Z,99040.17
2019-04-06T17:23:07.400Z,99034.59
2019-04-06T17:25:38.580Z,99035.75
2019-04-06T17:28:24.672Z,99033.59
2019-04-06T17:31:05.144Z,99040.17
2019-04-06T17:33:48.714Z,99038.08
2019-04-06T17:36:37.858Z,99039.27
2019-04-06T17:39:09.515Z,99042.28
2019-04-06T17:41:53.160Z,99041.16
2019-04-06T17:44:40.903Z,99051.12
2019-04-06T17:47:24.261Z,99051.41
2019-04-06T17:49:58.524Z,99049.23
2019-04-06T17:52:47.729Z,99053.08
2019-04-06T17:55:35.024Z,99055.87
2019-04-06T17:58:21.480Z,99061.83
2019-04-06T18:01:09.064Z,99063.77
2019-04-06T18:03:59.188Z,99064.17
2019-04-06T18:06:48.116Z,99066.66
2019-04-06T18:09:19.627Z,99065.94
2019-04-06T18:11:54.138Z,99070.29
2019-04-06T18:14:23.744Z,99075.70
2019-04-06T18:16:53.221Z,99080.95
2019-04-06T18:19:22.680Z,99081.12
2019-04-06T18:21:52.135Z,99087.17
2019-04-06T18:24:21.612Z,99093.91
2019-04-06T18:26:51.243Z,99097.94
2019-04-06T18:29:20.789Z,99100.47
2019-04-06T18:31:55.154Z,99100.66
2019-04-06T18:34:25.143Z,99102.54
2019-04-06T18:37:05.083Z,99106.79
2019-04-06T18:39:34.836Z,99106.23
2019-04-06T18:42:04.496Z,99107.29
2019-04-06T18:44:33.963Z,99112.05
2019-04-06T18:47:03.828Z,99118.52
2019-04-06T18:49:33.246Z,99116.97
2019-04-06T18:52:02.930Z,99122.67
2019-04-06T18:54:32.386Z,99125.72
2019-04-06T18:57:01.835Z,99121.64
2019-04-06T18:59:31.383Z,99123.27
2019-04-06T19:02:00.864Z,99112.65
2019-04-06T19:04:30.328Z,99124.42
2019-04-06T19:07:00.336Z,99124.61
2019-04-06T19:09:30.327Z,99129.17
2019-04-06T19:11:59.967Z,99123.82
2019-04-06T19:14:29.621Z,99128.75
2019-04-06T19:16:59.213Z,99128.24
2019-04-06T19:19:29.691Z,99132.28
2019-04-06T19:21:59.266Z,99135.48
2019-04-06T19:24:29.593Z,99132.69
2019-04-06T19:26:59.084Z,99137.53
2019-04-06T19:29:29.296Z,99130.98
2019-04-06T19:31:58.980Z,99134.64
2019-04-06T19:34:28.472Z,99130.23
2019-04-06T19:36:57.986Z,99134.13
2019-04-06T19:39:27.571Z,99130.67
2019-04-06T19:41:57.411Z,99133.78
2019-04-06T19:44:27.212Z,99130.43
2019-04-06T19:46:56.863Z,99130.84
2019-04-06T19:49:26.344Z,99129.81
2019-04-06T19:51:55.824Z,99133.17
2019-04-06T19:54:25.758Z,99127.56
2019-04-06T19:56:55.258Z,99126.11
2019-04-06T19:59:24.736Z,99127.06
2019-04-06T20:01:54.803Z,99129.16
2019-04-06T20:04:24.742Z,99127.92
2019-04-06T20:06:54.268Z,99128.02
2019-04-06T20:09:24.296Z,99118.66
2019-04-06T20:12:04.173Z,99126.08
2019-04-06T20:14:26.649Z,99128.50
2019-04-06T20:16:56.474Z,99126.58
2019-04-06T20:19:26.371Z,99123.83
2019-04-06T20:21:55.927Z,99121.18
2019-04-06T20:24:26.218Z,99118.23
2019-04-06T20:26:56.627Z,99120.54
2019-04-06T20:29:26.099Z,99117.06
2019-04-06T20:31:55.651Z,99115.03
2019-04-06T20:34:25.482Z,99116.41
2019-04-06T20:36:54.999Z,99119.78
2019-04-06T20:39:24.470Z,99120.47
2019-04-06T20:41:54.269Z,99110.09
2019-04-06T20:44:23.811Z,99110.67
2019-04-06T20:46:54.422Z,99107.52
2019-04-06T20:49:24.667Z,99108.87
2019-04-06T20:51:54.367Z,99104.84
2019-04-06T20:54:24.544Z,99100.47
2019-04-06T20:56:58.001Z,99102.83
2019-04-06T20:59:25.232Z,99106.23
2019-04-06T21:01:55.167Z,99103.56
2019-04-06T21:04:24.734Z,99112.84
2019-04-06T21:06:54.814Z,99111.05
2019-04-06T21:09:24.622Z,99105.52
2019-04-06T21:11:54.636Z,99108.23
2019-04-06T21:14:25.001Z,99113.49
2019-04-06T21:16:54.603Z,99112.84
2019-04-06T21:19:24.105Z,99119.41
2019-04-06T21:21:53.648Z,99118.24
2019-04-06T21:24:23.495Z,99113.04
2019-04-06T21:26:53.253Z,99111.02
2019-04-06T21:29:23.366Z,99111.52
2019-04-06T21:31:52.967Z,99113.37
2019-04-06T21:34:22.427Z,99109.69
2019-04-06T21:36:51.906Z,99110.53
2019-04-06T21:39:22.277Z,99110.06
2019-04-06T21:41:52.111Z,99116.61
2019-04-06T21:44:22.103Z,99111.58
2019-04-06T21:46:52.360Z,99112.08
2019-04-06T21:49:22.233Z,99108.92
2019-04-06T21:51:52.072Z,99111.78
2019-04-06T21:54:21.526Z,99116.64
2019-04-06T21:56:53.471Z,99117.28
2019-04-06T21:59:23.493Z,99108.05
2019-04-06T22:01:53.034Z,99110.59
2019-04-06T22:04:26.256Z,99109.26
2019-04-06T22:06:54.032Z,99110.09
2019-04-06T22:09:23.491Z,99108.92
2019-04-06T22:11:53.283Z,99110.27
2019-04-06T22:14:23.096Z,99108.25
2019-04-06T22:16:52.625Z,99103.55
2019-04-06T22:19:22.533Z,99111.77
2019-04-06T22:21:52.085Z,99100.19
2019-04-06T22:24:21.787Z,99104.05
2019-04-06T22:26:51.874Z,99098.85
2019-04-06T22:29:22.269Z,99102.88
2019-04-06T22:31:51.798Z,99104.21
2019-04-06T22:34:21.781Z,99099.88
2019-04-06T22:36:51.616Z,99094.84
2019-04-06T22:39:21.529Z,99091.97
2019-04-06T22:41:51.143Z,99094.84
2019-04-06T22:44:21.045Z,99094.67
2019-04-06T22:46:51.378Z,99096.52
2019-04-06T22:49:21.467Z,99101.20
2019-04-06T22:51:51.566Z,99101.37
2019-04-06T22:54:21.436Z,99097.68
2019-04-06T22:56:50.899Z,99096.16
2019-04-06T22:59:20.453Z,99098.51
2019-04-06T23:01:51.796Z,99097.98
2019-04-06T23:04:46.207Z,99090.77
2019-04-06T23:07:10.001Z,99091.23
2019-04-06T23:09:44.071Z,99088.70
2019-04-06T23:12:26.571Z,99092.72
2019-04-06T23:15:04.929Z,99088.20
2019-04-06T23:17:36.820Z,99084.16
2019-04-06T23:20:10.511Z,99091.84
2019-04-06T23:22:51.503Z,99094.00
2019-04-06T23:25:29.688Z,99082.27
2019-04-06T23:28:04.939Z,99087.14
2019-04-06T23:30:36.220Z,99081.92
2019-04-06T23:33:10.397Z,99078.66
2019-04-06T23:35:47.760Z,99078.14
2019-04-06T23:38:25.317Z,99077.64
2019-04-06T23:41:03.978Z,99076.81
2019-04-06T23:43:36.129Z,99078.63
2019-04-06T23:46:22.369Z,99081.59
2019-04-06T23:49:07.701Z,99076.53
2019-04-06T23:51:41.506Z,99078.16
2019-04-06T23:54:17.394Z,99081.46
2019-04-06T23:56:53.256Z,99087.78
2019-04-06T23:59:26.130Z,99085.95
